sensor_id;sensor_type;location;lat;lon;timestamp;pressure;altitude;pressure_sealevel;temperature;humidity
68594;BME280;55563;52.416;13.548;2023-02-15T00:01:38;102802.22;;;2.14;100.00
68594;BME280;55563;52.416;13.548;2023-02-15T00:03:38;102804.50;;;2.17;100.00
68594;BME280;55563;52.416;13.548;2023-02-15T00:05:39;102801.91;;;2.17;100.00
68594;BME280;55563;52.416;13.548;2023-02-15T00:07:40;102803.97;;;2.13;100.00
68594;BME280;55563;52.416;13.548;2023-02-15T00:09:41;102809.91;;;1.88;100.00
68594;BME280;55563;52.416;13.548;2023-02-15T00:11:42;102813.81;;;1.74;100.00
68594;BME280;55563;52.416;13.548;2023-02-15T00:13:43;102804.78;;;1.79;100.00
68594;BME280;55563;52.416;13.548;2023-02-15T00:15:43;102803.06;;;1.69;100.00
68594;BME280;55563;52.416;13.548;2023-02-15T00:17:44;102807.59;;;1.67;100.00
68594;BME280;55563;52.416;13.548;2023-02-15T00:19:45;102806.94;;;1.65;100.00
68594;BME280;55563;52.416;13.548;2023-02-15T00:21:46;102808.75;;;1.55;100.00
68594;BME280;55563;52.416;13.548;2023-02-15T00:23:47;102796.97;;;1.43;100.00
68594;BME280;55563;52.416;13.548;2023-02-15T00:25:48;102796.16;;;1.43;100.00
68594;BME280;55563;52.416;13.548;2023-02-15T00:27:49;102801.47;;;1.41;100.00
68594;BME280;55563;52.416;13.548;2023-02-15T00:29:50;102807.09;;;1.37;100.00
68594;BME280;55563;52.416;13.548;2023-02-15T00:31:51;102799.56;;;1.43;100.00
68594;BME280;55563;52.416;13.548;2023-02-15T00:33:52;102792.75;;;1.42;100.00
68594;BME280;55563;52.416;13.548;2023-02-15T00:35:57;102799.31;;;1.37;100.00
68594;BME280;55563;52.416;13.548;2023-02-15T00:37:58;102785.50;;;1.18;100.00
68594;BME280;55563;52.416;13.548;2023-02-15T00:39:59;102790.56;;;1.20;100.00
68594;BME280;55563;52.416;13.548;2023-02-15T00:41:59;102791.47;;;1.28;100.00
68594;BME280;55563;52.416;13.548;2023-02-15T00:44:00;102784.06;;;1.34;100.00
68594;BME280;55563;52.416;13.548;2023-02-15T00:46:05;102776.78;;;1.19;100.00
68594;BME280;55563;52.416;13.548;2023-02-15T00:48:06;102774.84;;;1.21;100.00
68594;BME280;55563;52.416;13.548;2023-02-15T00:50:07;102781.09;;;1.28;100.00
68594;BME280;55563;52.416;13.548;2023-02-15T00:52:08;102782.94;;;1.18;100.00
68594;BME280;55563;52.416;13.548;2023-02-15T00:54:09;102774.09;;;1.11;100.00
68594;BME280;55563;52.416;13.548;2023-02-15T00:56:11;102774.19;;;1.19;100.00
68594;BME280;55563;52.416;13.548;2023-02-15T00:58:12;102773.91;;;1.22;100.00
68594;BME280;55563;52.416;13.548;2023-02-15T01:00:14;102763.28;;;1.16;100.00
68594;BME280;55563;52.416;13.548;2023-02-15T01:02:15;102774.25;;;1.10;100.00
68594;BME280;55563;52.416;13.548;2023-02-15T01:04:15;102778.44;;;1.11;100.00
68594;BME280;55563;52.416;13.548;2023-02-15T01:06:16;102780.38;;;1.09;100.00
68594;BME280;55563;52.416;13.548;2023-02-15T01:08:18;102781.91;;;1.02;100.00
68594;BME280;55563;52.416;13.548;2023-02-15T01:10:18;102773.22;;;0.93;100.00
68594;BME280;55563;52.416;13.548;2023-02-15T01:12:19;102773.50;;;0.90;100.00
68594;BME280;55563;52.416;13.548;2023-02-15T01:14:22;102775.28;;;0.90;100.00
68594;BME280;55563;52.416;13.548;2023-02-15T01:16:25;102775.94;;;0.92;100.00
68594;BME280;55563;52.416;13.548;2023-02-15T01:18:26;102776.22;;;0.88;100.00
68594;BME280;55563;52.416;13.548;2023-02-15T01:20:28;102775.00;;;0.83;100.00
68594;BME280;55563;52.416;13.548;2023-02-15T01:22:29;102772.84;;;0.78;100.00
68594;BME280;55563;52.416;13.548;2023-02-15T01:24:30;102760.19;;;0.85;100.00
68594;BME280;55563;52.416;13.548;2023-02-15T01:26:30;102761.53;;;0.89;100.00
68594;BME280;55563;52.416;13.548;2023-02-15T01:28:32;102754.56;;;0.90;100.00
68594;BME280;55563;52.416;13.548;2023-02-15T01:30:33;102751.16;;;0.89;100.00
68594;BME280;55563;52.416;13.548;2023-02-15T01:32:34;102751.91;;;0.72;100.00
68594;BME280;55563;52.416;13.548;2023-02-15T01:34:34;102745.28;;;0.50;100.00
68594;BME280;55563;52.416;13.548;2023-02-15T01:36:35;102745.72;;;0.46;100.00
68594;BME280;55563;52.416;13.548;2023-02-15T01:38:36;102745.31;;;0.40;100.00
68594;BME280;55563;52.416;13.548;2023-02-15T01:40:39;102740.00;;;0.42;100.00
68594;BME280;55563;52.416;13.548;2023-02-15T01:42:40;102737.28;;;0.43;100.00
68594;BME280;55563;52.416;13.548;2023-02-15T01:44:50;102735.69;;;0.33;100.00
68594;BME280;55563;52.416;13.548;2023-02-15T01:46:53;102734.31;;;0.19;100.00
68594;BME280;55563;52.416;13.548;2023-02-15T01:49:01;102737.47;;;0.13;100.00
68594;BME280;55563;52.416;13.548;2023-02-15T01:51:04;102735.28;;;0.18;100.00
68594;BME280;55563;52.416;13.548;2023-02-15T01:53:13;102731.19;;;0.16;100.00
68594;BME280;55563;52.416;13.548;2023-02-15T01:55:16;102724.28;;;0.16;100.00
68594;BME280;55563;52.416;13.548;2023-02-15T01:57:20;102722.78;;;0.14;100.00
68594;BME280;55563;52.416;13.548;2023-02-15T01:59:23;102719.09;;;0.16;100.00
68594;BME280;55563;52.416;13.548;2023-02-15T02:01:25;102714.88;;;0.15;100.00
68594;BME280;55563;52.416;13.548;2023-02-15T02:06:08;102715.97;;;0.13;100.00
68594;BME280;55563;52.416;13.548;2023-02-15T02:08:09;102713.53;;;0.11;100.00
68594;BME280;55563;52.416;13.548;2023-02-15T02:10:13;102714.63;;;-0.01;100.00
68594;BME280;55563;52.416;13.548;2023-02-15T02:12:16;102714.25;;;-0.06;100.00
68594;BME280;55563;52.416;13.548;2023-02-15T02:14:18;102703.06;;;-0.07;100.00
68594;BME280;55563;52.416;13.548;2023-02-15T02:16:48;102701.56;;;-0.09;100.00
68594;BME280;55563;52.416;13.548;2023-02-15T02:18:57;102711.25;;;-0.11;100.00
68594;BME280;55563;52.416;13.548;2023-02-15T02:36:35;102697.38;;;-0.20;100.00
68594;BME280;55563;52.416;13.548;2023-02-15T02:41:20;102698.03;;;-0.27;100.00
68594;BME280;55563;52.416;13.548;2023-02-15T02:43:52;102692.22;;;-0.20;100.00
68594;BME280;55563;52.416;13.548;2023-02-15T02:46:00;102692.75;;;-0.16;100.00
68594;BME280;55563;52.416;13.548;2023-02-15T02:48:07;102682.56;;;-0.37;100.00
68594;BME280;55563;52.416;13.548;2023-02-15T02:50:12;102687.88;;;-0.38;100.00
68594;BME280;55563;52.416;13.548;2023-02-15T02:52:50;102682.41;;;-0.45;100.00
68594;BME280;55563;52.416;13.548;2023-02-15T02:54:52;102679.84;;;-0.45;100.00
68594;BME280;55563;52.416;13.548;2023-02-15T02:56:53;102680.25;;;-0.50;100.00
68594;BME280;55563;52.416;13.548;2023-02-15T02:59:07;102673.56;;;-0.52;100.00
68594;BME280;55563;52.416;13.548;2023-02-15T03:01:17;102667.88;;;-0.46;100.00
68594;BME280;55563;52.416;13.548;2023-02-15T03:03:27;102658.34;;;-0.46;100.00
68594;BME280;55563;52.416;13.548;2023-02-15T03:05:32;102672.63;;;-0.51;100.00
68594;BME280;55563;52.416;13.548;2023-02-15T03:07:35;102662.69;;;-0.56;100.00
68594;BME280;55563;52.416;13.548;2023-02-15T03:09:41;102665.16;;;-0.64;100.00
68594;BME280;55563;52.416;13.548;2023-02-15T03:11:46;102670.56;;;-0.76;100.00
68594;BME280;55563;52.416;13.548;2023-02-15T03:13:49;102667.56;;;-0.72;100.00
68594;BME280;55563;52.416;13.548;2023-02-15T03:15:52;102668.94;;;-0.77;100.00
68594;BME280;55563;52.416;13.548;2023-02-15T03:18:14;102661.84;;;-0.85;100.00
68594;BME280;55563;52.416;13.548;2023-02-15T03:20:24;102659.56;;;-0.88;100.00
68594;BME280;55563;52.416;13.548;2023-02-15T03:22:36;102660.50;;;-0.89;100.00
68594;BME280;55563;52.416;13.548;2023-02-15T03:24:53;102657.63;;;-0.96;100.00
68594;BME280;55563;52.416;13.548;2023-02-15T03:26:57;102663.75;;;-0.97;100.00
68594;BME280;55563;52.416;13.548;2023-02-15T03:29:03;102667.28;;;-0.98;100.00
68594;BME280;55563;52.416;13.548;2023-02-15T03:31:10;102662.75;;;-1.05;100.00
68594;BME280;55563;52.416;13.548;2023-02-15T03:33:13;102657.75;;;-1.07;100.00
68594;BME280;55563;52.416;13.548;2023-02-15T03:35:15;102662.59;;;-1.13;100.00
68594;BME280;55563;52.416;13.548;2023-02-15T03:37:28;102657.75;;;-1.07;100.00
68594;BME280;55563;52.416;13.548;2023-02-15T03:39:53;102660.72;;;-1.11;100.00
68594;BME280;55563;52.416;13.548;2023-02-15T03:42:13;102658.66;;;-1.17;100.00
68594;BME280;55563;52.416;13.548;2023-02-15T03:44:29;102665.03;;;-1.21;100.00
68594;BME280;55563;52.416;13.548;2023-02-15T03:46:40;102655.66;;;-1.22;100.00
68594;BME280;55563;52.416;13.548;2023-02-15T03:48:49;102652.53;;;-1.26;100.00
68594;BME280;55563;52.416;13.548;2023-02-15T03:50:55;102655.25;;;-1.27;100.00
68594;BME280;55563;52.416;13.548;2023-02-15T03:53:18;102656.44;;;-1.32;100.00
68594;BME280;55563;52.416;13.548;2023-02-15T03:55:21;102651.16;;;-1.30;100.00
68594;BME280;55563;52.416;13.548;2023-02-15T03:57:25;102643.28;;;-1.28;100.00
68594;BME280;55563;52.416;13.548;2023-02-15T03:59:46;102646.97;;;-1.31;100.00
68594;BME280;55563;52.416;13.548;2023-02-15T04:02:20;102646.53;;;-1.36;100.00
68594;BME280;55563;52.416;13.548;2023-02-15T04:04:28;102642.31;;;-1.37;100.00
68594;BME280;55563;52.416;13.548;2023-02-15T04:06:31;102645.97;;;-1.40;100.00
68594;BME280;55563;52.416;13.548;2023-02-15T04:08:32;102641.06;;;-1.43;100.00
68594;BME280;55563;52.416;13.548;2023-02-15T04:10:52;102631.84;;;-1.45;100.00
68594;BME280;55563;52.416;13.548;2023-02-15T04:12:53;102632.78;;;-1.46;100.00
68594;BME280;55563;52.416;13.548;2023-02-15T04:14:53;102631.03;;;-1.46;100.00
68594;BME280;55563;52.416;13.548;2023-02-15T04:17:14;102634.53;;;-1.47;100.00
68594;BME280;55563;52.416;13.548;2023-02-15T04:19:14;102636.69;;;-1.52;100.00
68594;BME280;55563;52.416;13.548;2023-02-15T04:21:35;102624.75;;;-1.53;100.00
68594;BME280;55563;52.416;13.548;2023-02-15T04:23:55;102623.75;;;-1.31;100.00
68594;BME280;55563;52.416;13.548;2023-02-15T04:26:16;102625.03;;;-1.46;100.00
68594;BME280;55563;52.416;13.548;2023-02-15T04:28:17;102623.91;;;-1.53;100.00
68594;BME280;55563;52.416;13.548;2023-02-15T04:30:21;102615.09;;;-1.60;100.00
68594;BME280;55563;52.416;13.548;2023-02-15T04:32:22;102614.16;;;-1.59;100.00
68594;BME280;55563;52.416;13.548;2023-02-15T04:34:23;102617.13;;;-1.64;100.00
68594;BME280;55563;52.416;13.548;2023-02-15T04:36:24;102613.97;;;-1.67;100.00
68594;BME280;55563;52.416;13.548;2023-02-15T04:38:24;102606.22;;;-1.67;100.00
68594;BME280;55563;52.416;13.548;2023-02-15T04:40:25;102611.31;;;-1.56;100.00
68594;BME280;55563;52.416;13.548;2023-02-15T04:42:26;102616.53;;;-1.67;100.00
68594;BME280;55563;52.416;13.548;2023-02-15T04:44:27;102606.50;;;-1.70;100.00
68594;BME280;55563;52.416;13.548;2023-02-15T04:46:28;102609.47;;;-1.75;100.00
68594;BME280;55563;52.416;13.548;2023-02-15T04:48:28;102601.69;;;-1.54;100.00
68594;BME280;55563;52.416;13.548;2023-02-15T04:50:29;102602.78;;;-1.47;100.00
68594;BME280;55563;52.416;13.548;2023-02-15T04:52:30;102601.16;;;-1.39;100.00
68594;BME280;55563;52.416;13.548;2023-02-15T04:54:30;102605.94;;;-1.34;100.00
68594;BME280;55563;52.416;13.548;2023-02-15T04:56:31;102598.75;;;-1.40;100.00
68594;BME280;55563;52.416;13.548;2023-02-15T04:58:33;102597.91;;;-1.50;100.00
68594;BME280;55563;52.416;13.548;2023-02-15T05:00:33;102595.53;;;-1.63;100.00
68594;BME280;55563;52.416;13.548;2023-02-15T05:02:34;102590.75;;;-1.67;100.00
68594;BME280;55563;52.416;13.548;2023-02-15T05:04:35;102591.97;;;-1.71;100.00
68594;BME280;55563;52.416;13.548;2023-02-15T05:06:35;102585.59;;;-1.67;100.00
68594;BME280;55563;52.416;13.548;2023-02-15T05:08:36;102575.28;;;-1.67;100.00
68594;BME280;55563;52.416;13.548;2023-02-15T05:10:37;102580.84;;;-1.72;100.00
68594;BME280;55563;52.416;13.548;2023-02-15T05:12:37;102573.69;;;-1.68;100.00
68594;BME280;55563;52.416;13.548;2023-02-15T05:14:38;102570.53;;;-1.72;100.00
68594;BME280;55563;52.416;13.548;2023-02-15T05:16:38;102565.56;;;-1.64;100.00
68594;BME280;55563;52.416;13.548;2023-02-15T05:18:39;102566.91;;;-1.69;100.00
68594;BME280;55563;52.416;13.548;2023-02-15T05:20:40;102568.69;;;-1.60;100.00
68594;BME280;55563;52.416;13.548;2023-02-15T05:22:41;102564.47;;;-1.61;100.00
68594;BME280;55563;52.416;13.548;2023-02-15T05:24:41;102565.28;;;-1.61;100.00
68594;BME280;55563;52.416;13.548;2023-02-15T05:27:02;102566.13;;;-1.51;100.00
68594;BME280;55563;52.416;13.548;2023-02-15T05:29:22;102558.41;;;-1.51;100.00
68594;BME280;55563;52.416;13.548;2023-02-15T05:31:23;102563.00;;;-1.54;100.00
68594;BME280;55563;52.416;13.548;2023-02-15T05:33:24;102561.25;;;-1.54;100.00
68594;BME280;55563;52.416;13.548;2023-02-15T05:35:24;102569.66;;;-1.52;100.00
68594;BME280;55563;52.416;13.548;2023-02-15T05:37:25;102560.16;;;-1.51;100.00
68594;BME280;55563;52.416;13.548;2023-02-15T05:39:25;102570.09;;;-1.47;100.00
68594;BME280;55563;52.416;13.548;2023-02-15T05:41:26;102561.19;;;-1.73;100.00
68594;BME280;55563;52.416;13.548;2023-02-15T05:43:27;102569.66;;;-1.52;100.00
68594;BME280;55563;52.416;13.548;2023-02-15T05:45:28;102570.31;;;-1.59;100.00
68594;BME280;55563;52.416;13.548;2023-02-15T05:47:29;102569.13;;;-1.55;100.00
68594;BME280;55563;52.416;13.548;2023-02-15T05:49:29;102568.81;;;-1.62;100.00
68594;BME280;55563;52.416;13.548;2023-02-15T05:51:30;102562.56;;;-1.69;100.00
68594;BME280;55563;52.416;13.548;2023-02-15T05:53:33;102561.56;;;-1.87;100.00
68594;BME280;55563;52.416;13.548;2023-02-15T05:55:38;102563.97;;;-1.86;100.00
68594;BME280;55563;52.416;13.548;2023-02-15T05:57:39;102558.97;;;-1.87;100.00
68594;BME280;55563;52.416;13.548;2023-02-15T05:59:39;102558.03;;;-1.77;100.00
68594;BME280;55563;52.416;13.548;2023-02-15T06:01:40;102561.63;;;-1.68;100.00
68594;BME280;55563;52.416;13.548;2023-02-15T06:03:41;102558.06;;;-1.67;100.00
68594;BME280;55563;52.416;13.548;2023-02-15T06:05:42;102562.56;;;-1.69;100.00
68594;BME280;55563;52.416;13.548;2023-02-15T06:07:43;102561.75;;;-1.69;100.00
68594;BME280;55563;52.416;13.548;2023-02-15T06:09:45;102561.03;;;-1.71;100.00
68594;BME280;55563;52.416;13.548;2023-02-15T06:11:45;102562.69;;;-1.70;100.00
68594;BME280;55563;52.416;13.548;2023-02-15T06:13:50;102561.97;;;-1.72;100.00
68594;BME280;55563;52.416;13.548;2023-02-15T06:15:52;102565.13;;;-1.69;100.00
68594;BME280;55563;52.416;13.548;2023-02-15T06:17:53;102560.25;;;-1.62;100.00
68594;BME280;55563;52.416;13.548;2023-02-15T06:19:56;102564.78;;;-1.55;100.00
68594;BME280;55563;52.416;13.548;2023-02-15T06:21:57;102552.97;;;-1.48;100.00
68594;BME280;55563;52.416;13.548;2023-02-15T06:23:57;102559.63;;;-1.55;100.00
68594;BME280;55563;52.416;13.548;2023-02-15T06:25:58;102559.13;;;-1.39;100.00
68594;BME280;55563;52.416;13.548;2023-02-15T06:27:59;102557.84;;;-1.54;100.00
68594;BME280;55563;52.416;13.548;2023-02-15T06:29:59;102558.00;;;-1.46;100.00
68594;BME280;55563;52.416;13.548;2023-02-15T06:32:00;102553.88;;;-1.68;100.00
68594;BME280;55563;52.416;13.548;2023-02-15T06:34:00;102555.94;;;-1.52;100.00
68594;BME280;55563;52.416;13.548;2023-02-15T06:36:02;102554.84;;;-1.59;100.00
68594;BME280;55563;52.416;13.548;2023-02-15T06:38:04;102556.22;;;-1.55;100.00
68594;BME280;55563;52.416;13.548;2023-02-15T06:40:05;102549.72;;;-1.50;100.00
68594;BME280;55563;52.416;13.548;2023-02-15T06:42:06;102554.59;;;-1.47;100.00
68594;BME280;55563;52.416;13.548;2023-02-15T06:46:00;102551.22;;;-1.47;100.00
68594;BME280;55563;52.416;13.548;2023-02-15T06:47:52;102555.94;;;-1.52;100.00
68594;BME280;55563;52.416;13.548;2023-02-15T06:49:52;102552.97;;;-1.48;100.00
68594;BME280;55563;52.416;13.548;2023-02-15T06:51:56;102550.16;;;-1.35;100.00
68594;BME280;55563;52.416;13.548;2023-02-15T06:53:57;102552.31;;;-1.40;100.00
68594;BME280;55563;52.416;13.548;2023-02-15T06:56:04;102545.22;;;-1.57;100.00
68594;BME280;55563;52.416;13.548;2023-02-15T06:58:09;102553.03;;;-1.78;100.00
68594;BME280;55563;52.416;13.548;2023-02-15T07:00:10;102551.22;;;-1.47;100.00
68594;BME280;55563;52.416;13.548;2023-02-15T07:02:12;102545.94;;;-1.46;100.00
68594;BME280;55563;52.416;13.548;2023-02-15T07:04:13;102541.66;;;-1.66;100.00
68594;BME280;55563;52.416;13.548;2023-02-15T07:06:13;102541.16;;;-1.60;100.00
68594;BME280;55563;52.416;13.548;2023-02-15T07:08:14;102547.09;;;-1.69;100.00
68594;BME280;55563;52.416;13.548;2023-02-15T07:10:15;102542.94;;;-1.51;100.00
68594;BME280;55563;52.416;13.548;2023-02-15T07:12:16;102542.25;;;-1.43;100.00
68594;BME280;55563;52.416;13.548;2023-02-15T07:14:36;102541.47;;;-1.34;100.00
68594;BME280;55563;52.416;13.548;2023-02-15T07:16:37;102541.06;;;-1.20;100.00
68594;BME280;55563;52.416;13.548;2023-02-15T07:18:38;102537.94;;;-1.33;100.00
68594;BME280;55563;52.416;13.548;2023-02-15T07:20:39;102535.75;;;-1.47;100.00
68594;BME280;55563;52.416;13.548;2023-02-15T07:22:42;102545.44;;;-1.30;100.00
68594;BME280;55563;52.416;13.548;2023-02-15T07:24:43;102542.28;;;-1.24;100.00
68594;BME280;55563;52.416;13.548;2023-02-15T07:26:43;102547.31;;;-1.22;100.00
68594;BME280;55563;52.416;13.548;2023-02-15T07:28:44;102546.22;;;-1.10;100.00
68594;BME280;55563;52.416;13.548;2023-02-15T07:30:47;102533.50;;;-1.02;100.00
68594;BME280;55563;52.416;13.548;2023-02-15T07:32:57;102534.97;;;-1.00;100.00
68594;BME280;55563;52.416;13.548;2023-02-15T07:35:18;102524.25;;;-1.14;100.00
68594;BME280;55563;52.416;13.548;2023-02-15T07:37:19;102519.09;;;-1.14;100.00
68594;BME280;55563;52.416;13.548;2023-02-15T07:39:19;102518.50;;;-1.47;100.00
68594;BME280;55563;52.416;13.548;2023-02-15T07:41:20;102515.69;;;-1.15;100.00
68594;BME280;55563;52.416;13.548;2023-02-15T07:43:22;102516.91;;;-1.00;100.00
68594;BME280;55563;52.416;13.548;2023-02-15T07:45:23;102509.88;;;-1.07;100.00
68594;BME280;55563;52.416;13.548;2023-02-15T07:47:23;102504.16;;;-0.92;100.00
68594;BME280;55563;52.416;13.548;2023-02-15T07:49:24;102503.75;;;-0.97;100.00
68594;BME280;55563;52.416;13.548;2023-02-15T07:51:25;102504.28;;;-0.93;100.00
68594;BME280;55563;52.416;13.548;2023-02-15T07:53:25;102489.84;;;-0.76;100.00
68594;BME280;55563;52.416;13.548;2023-02-15T07:55:26;102496.22;;;-0.71;100.00
68594;BME280;55563;52.416;13.548;2023-02-15T07:57:28;102491.78;;;-0.78;100.00
68594;BME280;55563;52.416;13.548;2023-02-15T07:59:29;102495.19;;;-0.97;100.00
68594;BME280;55563;52.416;13.548;2023-02-15T08:01:32;102500.34;;;-0.88;100.00
68594;BME280;55563;52.416;13.548;2023-02-15T08:03:34;102492.72;;;-0.79;100.00
68594;BME280;55563;52.416;13.548;2023-02-15T08:05:35;102496.28;;;-1.00;100.00
68594;BME280;55563;52.416;13.548;2023-02-15T08:07:36;102499.94;;;-1.02;100.00
68594;BME280;55563;52.416;13.548;2023-02-15T08:09:36;102497.59;;;-0.76;100.00
68594;BME280;55563;52.416;13.548;2023-02-15T08:11:38;102505.59;;;-0.60;100.00
68594;BME280;55563;52.416;13.548;2023-02-15T08:13:43;102502.72;;;-0.57;100.00
68594;BME280;55563;52.416;13.548;2023-02-15T08:15:53;102494.31;;;-0.50;100.00
68594;BME280;55563;52.416;13.548;2023-02-15T08:17:54;102503.16;;;-0.62;100.00
68594;BME280;55563;52.416;13.548;2023-02-15T08:19:55;102492.59;;;-0.78;100.00
68594;BME280;55563;52.416;13.548;2023-02-15T08:21:58;102498.94;;;-0.53;100.00
68594;BME280;55563;52.416;13.548;2023-02-15T08:23:59;102488.28;;;-0.40;100.00
68594;BME280;55563;52.416;13.548;2023-02-15T08:26:00;102493.03;;;-0.36;100.00
68594;BME280;55563;52.416;13.548;2023-02-15T08:29:00;102492.84;;;-0.71;100.00
68594;BME280;55563;52.416;13.548;2023-02-15T08:31:45;102485.66;;;-0.68;100.00
68594;BME280;55563;52.416;13.548;2023-02-15T08:33:47;102494.19;;;-0.58;100.00
68594;BME280;55563;52.416;13.548;2023-02-15T08:35:49;102490.97;;;-0.79;100.00
68594;BME280;55563;52.416;13.548;2023-02-15T08:37:49;102489.94;;;-0.49;100.00
68594;BME280;55563;52.416;13.548;2023-02-15T08:39:51;102483.81;;;-0.38;100.00
68594;BME280;55563;52.416;13.548;2023-02-15T08:41:52;102473.25;;;-0.55;100.00
68594;BME280;55563;52.416;13.548;2023-02-15T08:43:54;102475.06;;;-0.28;100.00
68594;BME280;55563;52.416;13.548;2023-02-15T08:45:55;102482.94;;;-0.20;100.00
68594;BME280;55563;52.416;13.548;2023-02-15T08:47:56;102476.78;;;-0.19;100.00
68594;BME280;55563;52.416;13.548;2023-02-15T08:49:57;102467.38;;;-0.10;100.00
68594;BME280;55563;52.416;13.548;2023-02-15T08:51:57;102462.88;;;-0.45;100.00
68594;BME280;55563;52.416;13.548;2023-02-15T08:54:00;102463.00;;;-0.37;100.00
68594;BME280;55563;52.416;13.548;2023-02-15T08:56:02;102468.41;;;-0.30;100.00
68594;BME280;55563;52.416;13.548;2023-02-15T08:58:03;102464.88;;;-0.02;100.00
68594;BME280;55563;52.416;13.548;2023-02-15T09:00:04;102455.03;;;-0.16;100.00
68594;BME280;55563;52.416;13.548;2023-02-15T09:02:05;102456.22;;;-0.11;100.00
68594;BME280;55563;52.416;13.548;2023-02-15T09:04:07;102452.47;;;0.02;100.00
68594;BME280;55563;52.416;13.548;2023-02-15T09:06:09;102452.72;;;0.08;100.00
68594;BME280;55563;52.416;13.548;2023-02-15T09:08:10;102448.63;;;0.06;100.00
68594;BME280;55563;52.416;13.548;2023-02-15T09:10:11;102446.16;;;0.14;100.00
68594;BME280;55563;52.416;13.548;2023-02-15T09:12:11;102439.34;;;-0.05;100.00
68594;BME280;55563;52.416;13.548;2023-02-15T09:14:17;102453.91;;;0.14;100.00
68594;BME280;55563;52.416;13.548;2023-02-15T09:16:25;102441.59;;;-0.20;100.00
68594;BME280;55563;52.416;13.548;2023-02-15T09:18:26;102435.03;;;0.49;100.00
68594;BME280;55563;52.416;13.548;2023-02-15T09:20:27;102437.84;;;0.55;100.00
68594;BME280;55563;52.416;13.548;2023-02-15T09:22:29;102443.06;;;0.63;100.00
68594;BME280;55563;52.416;13.548;2023-02-15T09:24:32;102437.16;;;0.53;100.00
68594;BME280;55563;52.416;13.548;2023-02-15T09:26:37;102435.75;;;0.59;100.00
68594;BME280;55563;52.416;13.548;2023-02-15T09:28:42;102438.00;;;0.71;100.00
68594;BME280;55563;52.416;13.548;2023-02-15T09:30:42;102437.31;;;1.13;100.00
68594;BME280;55563;52.416;13.548;2023-02-15T09:32:43;102436.91;;;0.82;100.00
68594;BME280;55563;52.416;13.548;2023-02-15T09:34:46;102442.38;;;0.97;100.00
68594;BME280;55563;52.416;13.548;2023-02-15T09:36:47;102437.16;;;0.88;100.00
68594;BME280;55563;52.416;13.548;2023-02-15T09:38:55;102444.63;;;0.74;100.00
68594;BME280;55563;52.416;13.548;2023-02-15T09:41:12;102434.28;;;1.17;100.00
68594;BME280;55563;52.416;13.548;2023-02-15T09:43:29;102440.69;;;1.65;100.00
68594;BME280;55563;52.416;13.548;2023-02-15T09:45:49;102439.81;;;1.82;100.00
68594;BME280;55563;52.416;13.548;2023-02-15T09:48:20;102430.31;;;1.65;100.00
68594;BME280;55563;52.416;13.548;2023-02-15T09:50:38;102442.28;;;1.32;100.00
68594;BME280;55563;52.416;13.548;2023-02-15T10:03:39;102427.34;;;1.52;100.00
68594;BME280;55563;52.416;13.548;2023-02-15T10:05:47;102418.84;;;1.67;100.00
68594;BME280;55563;52.416;13.548;2023-02-15T10:10:33;102417.13;;;1.84;100.00
68594;BME280;55563;52.416;13.548;2023-02-15T10:15:44;102416.38;;;2.08;100.00
68594;BME280;55563;52.416;13.548;2023-02-15T10:22:42;102407.13;;;2.05;100.00
68594;BME280;55563;52.416;13.548;2023-02-15T10:27:18;102407.63;;;2.17;100.00
68594;BME280;55563;52.416;13.548;2023-02-15T10:29:41;102406.03;;;2.32;100.00
68594;BME280;55563;52.416;13.548;2023-02-15T10:31:48;102399.72;;;2.43;100.00
68594;BME280;55563;52.416;13.548;2023-02-15T10:34:14;102396.28;;;2.18;100.00
68594;BME280;55563;52.416;13.548;2023-02-15T10:36:43;102398.28;;;2.73;100.00
68594;BME280;55563;52.416;13.548;2023-02-15T10:41:53;102393.25;;;2.63;100.00
68594;BME280;55563;52.416;13.548;2023-02-15T10:49:22;102376.84;;;2.79;100.00
68594;BME280;55563;52.416;13.548;2023-02-15T10:54:15;102363.88;;;2.46;100.00
68594;BME280;55563;52.416;13.548;2023-02-15T10:56:45;102367.41;;;2.94;100.00
68594;BME280;55563;52.416;13.548;2023-02-15T10:59:19;102369.50;;;2.98;100.00
68594;BME280;55563;52.416;13.548;2023-02-15T11:01:37;102362.06;;;2.95;100.00
68594;BME280;55563;52.416;13.548;2023-02-15T11:04:45;102361.25;;;2.95;100.00
68594;BME280;55563;52.416;13.548;2023-02-15T11:06:23;102361.53;;;3.08;100.00
68594;BME280;55563;52.416;13.548;2023-02-15T11:08:26;102353.53;;;3.26;100.00
68594;BME280;55563;52.416;13.548;2023-02-15T11:10:34;102354.13;;;3.36;100.00
68594;BME280;55563;52.416;13.548;2023-02-15T11:12:36;102344.75;;;3.35;100.00
68594;BME280;55563;52.416;13.548;2023-02-15T11:14:46;102352.53;;;3.66;100.00
68594;BME280;55563;52.416;13.548;2023-02-15T11:16:52;102345.81;;;3.79;100.00
68594;BME280;55563;52.416;13.548;2023-02-15T11:18:58;102343.13;;;3.95;100.00
68594;BME280;55563;52.416;13.548;2023-02-15T11:23:32;102339.69;;;4.41;100.00
68594;BME280;55563;52.416;13.548;2023-02-15T11:25:34;102340.28;;;4.51;100.00
68594;BME280;55563;52.416;13.548;2023-02-15T11:27:36;102333.00;;;4.61;100.00
68594;BME280;55563;52.416;13.548;2023-02-15T11:29:44;102326.38;;;4.73;100.00
68594;BME280;55563;52.416;13.548;2023-02-15T11:31:51;102325.13;;;4.83;100.00
68594;BME280;55563;52.416;13.548;2023-02-15T11:34:04;102321.34;;;5.01;100.00
68594;BME280;55563;52.416;13.548;2023-02-15T11:38:24;102310.28;;;5.28;100.00
68594;BME280;55563;52.416;13.548;2023-02-15T11:40:43;102303.34;;;5.35;100.00
68594;BME280;55563;52.416;13.548;2023-02-15T11:42:57;102295.63;;;5.42;100.00